Time;durP1;ratioP1;P1;durP2;ratioP2;P2;SDS_P1;SDS_P2;PMS_P1;PMS_P2;Temp;Humidity;BMP_temperature;BMP_pressure;BME280_temperature;BME280_humidity;BME280_pressure;Samples;Min_cycle;Max_cycle;Signal;HPM_P1;HPM_P2
2023/11/22 00:02:08;;;;;;;;;29.50;27.00;;;;;23.40;38.43;100689.05;116432;1180;91408;-65
2023/11/22 00:04:36;;;;;;;;;27.00;24.50;;;;;23.39;38.50;100687.86;116600;1180;92142;-64
2023/11/22 00:07:04;;;;;;;;;25.50;25.00;;;;;23.38;38.53;100683.25;116630;1180;90916;-65
2023/11/22 00:09:32;;;;;;;;;29.50;26.50;;;;;23.37;38.37;100687.38;116607;1180;73010;-66
2023/11/22 00:12:00;;;;;;;;;27.00;24.00;;;;;23.36;38.41;100683.20;116609;1180;89754;-57
2023/11/22 00:14:28;;;;;;;;;25.50;24.00;;;;;23.33;38.46;100683.21;116582;1192;89340;-57
2023/11/22 00:16:57;;;;;;;;;26.50;25.00;;;;;23.32;38.10;100682.40;116493;1191;91852;-57
2023/11/22 00:19:25;;;;;;;;;26.50;26.50;;;;;23.33;37.92;100677.85;116671;1179;72947;-61
2023/11/22 00:21:53;;;;;;;;;29.00;29.00;;;;;23.36;37.98;100679.63;116607;1179;90412;-56
2023/11/22 00:24:21;;;;;;;;;27.00;27.00;;;;;23.38;37.81;100676.27;116591;1180;91068;-65
2023/11/22 00:26:49;;;;;;;;;27.00;27.00;;;;;23.39;37.84;100675.38;116619;1180;91883;-63
2023/11/22 00:29:17;;;;;;;;;25.00;25.00;;;;;23.41;37.72;100670.79;116533;1181;73632;-65
2023/11/22 00:31:46;;;;;;;;;26.50;25.00;;;;;23.44;37.86;100671.05;116604;1185;89235;-64
2023/11/22 00:34:14;;;;;;;;;27.00;27.00;;;;;23.48;37.63;100676.85;116573;1180;89931;-63
2023/11/22 00:36:45;;;;;;;;;30.00;29.00;;;;;23.50;37.67;100670.77;116527;1180;90732;-62
2023/11/22 00:39:13;;;;;;;;;23.50;23.00;;;;;23.51;37.60;100672.44;116612;1180;73517;-57
2023/11/22 00:41:41;;;;;;;;;27.00;25.00;;;;;23.50;37.71;100670.95;116527;1180;90114;-53
2023/11/22 00:44:09;;;;;;;;;28.00;26.00;;;;;23.49;37.65;100669.23;116589;1183;89696;-56
2023/11/22 00:46:37;;;;;;;;;24.50;23.00;;;;;23.49;37.38;100663.30;116616;1180;92124;-57
2023/11/22 00:49:05;;;;;;;;;25.00;22.00;;;;;23.48;37.64;100660.17;116639;1179;73867;-58
2023/11/22 00:51:33;;;;;;;;;21.00;21.00;;;;;23.48;37.69;100658.38;116611;1192;90887;-57
2023/11/22 00:54:01;;;;;;;;;20.50;20.50;;;;;23.47;37.48;100657.20;116587;1180;90969;-61
2023/11/22 00:56:29;;;;;;;;;31.50;28.50;;;;;23.46;37.55;100653.17;116585;1192;90514;-60
2023/11/22 00:58:59;;;;;;;;;26.50;26.00;;;;;23.44;37.54;100656.68;116537;1179;72736;-60
2023/11/22 01:01:29;;;;;;;;;23.00;23.00;;;;;23.43;37.59;100654.21;116592;1180;90597;-67
2023/11/22 01:03:57;;;;;;;;;25.00;23.00;;;;;23.42;37.60;100653.26;116627;1192;90868;-56
2023/11/22 01:06:25;;;;;;;;;27.00;25.00;;;;;23.42;37.76;100655.27;116631;1179;92917;-59
2023/11/22 01:08:53;;;;;;;;;26.00;24.00;;;;;23.42;37.84;100653.94;116583;1192;73258;-64
2023/11/22 01:11:21;;;;;;;;;24.00;24.00;;;;;23.40;38.07;100655.98;116618;1188;89208;-56
2023/11/22 01:13:49;;;;;;;;;23.00;22.00;;;;;23.40;37.99;100655.46;116606;1180;90078;-55
2023/11/22 01:16:17;;;;;;;;;23.50;21.50;;;;;23.40;37.90;100653.01;116604;1192;92156;-57
2023/11/22 01:18:48;;;;;;;;;20.50;20.50;;;;;23.38;37.90;100646.51;116583;1180;74064;-57
2023/11/22 01:21:16;;;;;;;;;25.50;24.50;;;;;23.37;37.88;100640.27;116525;1180;90173;-62
2023/11/22 01:23:45;;;;;;;;;27.00;24.00;;;;;23.36;37.92;100637.14;116593;1180;91524;-64
2023/11/22 01:26:13;;;;;;;;;23.50;22.00;;;;;23.35;37.83;100635.17;116605;1192;91282;-58
2023/11/22 01:28:44;;;;;;;;;25.50;25.00;;;;;23.33;37.68;100634.30;116584;1180;73584;-57
2023/11/22 01:31:13;;;;;;;;;28.50;27.00;;;;;23.32;37.48;100634.07;116583;1187;90394;-62
2023/11/22 01:33:41;;;;;;;;;26.50;26.00;;;;;23.34;37.50;100637.16;116544;1179;91338;-63
2023/11/22 01:36:09;;;;;;;;;29.00;23.00;;;;;23.34;37.49;100639.13;116581;1192;91583;-59
2023/11/22 01:38:39;;;;;;;;;24.00;24.00;;;;;23.34;37.52;100638.95;116623;1180;74047;-62
2023/11/22 01:41:07;;;;;;;;;21.00;21.00;;;;;23.34;37.43;100630.31;116625;1180;90147;-57
2023/11/22 01:43:38;;;;;;;;;27.00;26.00;;;;;23.36;37.54;100623.09;116616;1180;90427;-59
2023/11/22 01:46:11;;;;;;;;;24.00;23.50;;;;;23.39;37.48;100618.99;116580;1179;91332;-62
2023/11/22 01:48:39;;;;;;;;;29.00;27.00;;;;;23.40;37.42;100616.63;116657;1179;73847;-59
2023/11/22 01:51:08;;;;;;;;;27.00;22.00;;;;;23.42;37.52;100613.71;116603;1180;90965;-57
2023/11/22 01:53:37;;;;;;;;;26.00;26.00;;;;;23.43;37.58;100609.59;116634;1180;90919;-60
2023/11/22 01:56:05;;;;;;;;;22.00;21.00;;;;;23.44;37.49;100606.50;116588;1180;91333;-59
2023/11/22 01:58:32;;;;;;;;;22.00;22.00;;;;;23.43;37.55;100600.21;116576;1190;74187;-61
2023/11/22 02:01:02;;;;;;;;;23.50;21.50;;;;;23.42;37.50;100595.55;116617;1180;89249;-63
2023/11/22 02:03:30;;;;;;;;;23.00;22.00;;;;;23.42;37.43;100595.27;116600;1192;90306;-62
2023/11/22 02:06:00;;;;;;;;;25.00;25.00;;;;;23.42;37.46;100591.84;116593;1179;90935;-63
2023/11/22 02:08:28;;;;;;;;;20.50;18.00;;;;;23.42;37.67;100594.52;116621;1192;73575;-57
2023/11/22 02:11:03;;;;;;;;;20.50;20.50;;;;;23.42;37.60;100599.80;116634;1180;90612;-59
2023/11/22 02:13:31;;;;;;;;;22.00;22.00;;;;;23.42;37.47;100599.59;116639;1180;90514;-63
2023/11/22 02:16:01;;;;;;;;;31.00;29.00;;;;;23.41;37.53;100597.00;116611;1179;92565;-57
2023/11/22 02:18:29;;;;;;;;;24.00;22.00;;;;;23.40;37.73;100594.84;116540;1179;72811;-59
2023/11/22 02:20:58;;;;;;;;;24.50;23.00;;;;;23.39;37.77;100594.64;116594;1181;90669;-55
2023/11/22 02:23:26;;;;;;;;;25.00;24.50;;;;;23.38;37.59;100594.94;116567;1180;90606;-57
2023/11/22 02:25:54;;;;;;;;;27.00;23.00;;;;;23.37;37.68;100598.40;116584;1191;91631;-56
2023/11/22 02:28:22;;;;;;;;;22.00;22.00;;;;;23.36;37.84;100596.95;116606;1180;73704;-65
2023/11/22 02:30:51;;;;;;;;;20.00;19.50;;;;;23.34;38.19;100600.50;116569;1190;90131;-56
2023/11/22 02:33:19;;;;;;;;;22.50;22.50;;;;;23.32;38.15;100600.17;116614;1179;90196;-65
2023/11/22 02:35:47;;;;;;;;;21.00;21.00;;;;;23.32;38.11;100602.67;116544;1191;91335;-57
2023/11/22 02:38:15;;;;;;;;;19.00;17.50;;;;;23.30;37.99;100602.48;116544;1178;73630;-64
2023/11/22 02:40:43;;;;;;;;;20.00;20.00;;;;;23.28;37.97;100605.05;116571;1180;91074;-56
2023/11/22 02:43:12;;;;;;;;;22.50;21.00;;;;;23.26;37.88;100599.48;116561;1192;90375;-59
2023/11/22 02:45:39;;;;;;;;;23.00;23.00;;;;;23.24;37.59;100600.46;116640;1179;90777;-58
2023/11/22 02:48:10;;;;;;;;;26.00;24.00;;;;;23.25;37.63;100598.93;116595;1192;72027;-56
2023/11/22 02:50:39;;;;;;;;;26.00;23.50;;;;;23.27;37.55;100602.90;116576;1179;89869;-53
2023/11/22 02:53:07;;;;;;;;;21.50;21.50;;;;;23.28;37.51;100600.54;116633;1180;90903;-57
2023/11/22 02:55:35;;;;;;;;;28.00;23.00;;;;;23.29;37.43;100602.91;116589;1179;93128;-58
2023/11/22 02:58:04;;;;;;;;;22.00;21.00;;;;;23.30;37.69;100600.60;116579;1192;73332;-63
2023/11/22 03:00:34;;;;;;;;;24.00;24.00;;;;;23.31;37.48;100598.81;116563;1179;90497;-57
2023/11/22 03:03:04;;;;;;;;;22.50;22.50;;;;;23.32;37.50;100601.69;116628;1180;90977;-61
2023/11/22 03:05:33;;;;;;;;;19.50;18.50;;;;;23.34;37.45;100600.88;116609;1179;92886;-58
2023/11/22 03:08:01;;;;;;;;;18.00;18.00;;;;;23.35;37.32;100597.80;116610;1179;73450;-60
2023/11/22 03:10:32;;;;;;;;;21.00;21.00;;;;;23.35;37.26;100595.19;116560;1183;91117;-58
2023/11/22 03:12:59;;;;;;;;;21.00;21.00;;;;;23.36;37.50;100600.06;116597;1192;90374;-55
2023/11/22 03:15:27;;;;;;;;;25.00;23.50;;;;;23.36;37.41;100602.79;116663;1179;92234;-60
2023/11/22 03:17:55;;;;;;;;;24.00;21.00;;;;;23.37;37.38;100605.38;116626;1180;74208;-62
2023/11/22 03:20:23;;;;;;;;;26.50;24.50;;;;;23.38;37.51;100606.33;116610;1180;90301;-62
2023/11/22 03:22:51;;;;;;;;;23.00;22.00;;;;;23.37;37.58;100609.15;116576;1180;91080;-59
2023/11/22 03:25:19;;;;;;;;;27.00;23.50;;;;;23.36;37.61;100611.81;116582;1192;91844;-58
2023/11/22 03:27:48;;;;;;;;;23.00;20.00;;;;;23.35;37.79;100611.28;116598;1192;73844;-55
2023/11/22 03:30:15;;;;;;;;;22.00;22.00;;;;;23.34;37.78;100611.84;116604;1179;90005;-60
2023/11/22 03:32:43;;;;;;;;;24.50;23.00;;;;;23.33;37.82;100608.32;116650;1192;91551;-51
2023/11/22 03:35:12;;;;;;;;;22.50;20.50;;;;;23.32;37.83;100610.64;116634;1180;92713;-58
2023/11/22 03:37:40;;;;;;;;;23.00;21.00;;;;;23.31;37.87;100610.41;116586;1179;73071;-56
2023/11/22 03:40:13;;;;;;;;;19.00;19.00;;;;;23.30;37.71;100613.48;116648;1181;91405;-63
2023/11/22 03:42:41;;;;;;;;;19.00;19.00;;;;;23.29;37.53;100610.71;116621;1180;91343;-56
2023/11/22 03:45:09;;;;;;;;;19.50;19.50;;;;;23.29;37.71;100607.06;116615;1183;92313;-52
2023/11/22 03:47:37;;;;;;;;;21.00;19.00;;;;;23.28;37.94;100606.86;116644;1180;73744;-60
2023/11/22 03:50:07;;;;;;;;;22.00;22.00;;;;;23.28;37.77;100607.50;116586;1192;89153;-64
2023/11/22 03:52:35;;;;;;;;;28.00;28.00;;;;;23.26;37.46;100607.48;116631;1180;90463;-62
2023/11/22 03:55:03;;;;;;;;;26.00;26.00;;;;;23.26;37.54;100611.73;116624;1192;92452;-64
2023/11/22 03:57:31;;;;;;;;;25.00;22.00;;;;;23.26;37.43;100617.69;116653;1180;73060;-65
2023/11/22 03:59:59;;;;;;;;;24.50;24.00;;;;;23.27;37.37;100620.64;116566;1180;89941;-59
2023/11/22 04:02:29;;;;;;;;;25.00;25.00;;;;;23.29;37.38;100621.34;116593;1180;90288;-64
2023/11/22 04:04:57;;;;;;;;;21.00;21.00;;;;;23.30;37.30;100621.45;116658;1179;91996;-62
2023/11/22 04:07:25;;;;;;;;;27.50;24.50;;;;;23.32;37.40;100623.58;116635;1183;73401;-61
2023/11/22 04:09:54;;;;;;;;;20.00;20.00;;;;;23.34;37.37;100623.14;116628;1180;90807;-55
2023/11/22 04:12:22;;;;;;;;;22.50;22.50;;;;;23.34;37.25;100623.92;116626;1192;90702;-63
2023/11/22 04:14:51;;;;;;;;;18.50;18.50;;;;;23.36;37.47;100628.01;116633;1181;91459;-65
2023/11/22 04:17:20;;;;;;;;;24.00;24.00;;;;;23.37;37.28;100628.98;116649;1179;72439;-56
2023/11/22 04:19:48;;;;;;;;;24.00;24.00;;;;;23.38;37.27;100635.00;116610;1179;89540;-67
2023/11/22 04:22:16;;;;;;;;;18.50;18.50;;;;;23.38;37.36;100637.06;116612;1180;90337;-56
2023/11/22 04:24:45;;;;;;;;;19.00;18.50;;;;;23.38;37.34;100644.45;116663;1180;91370;-66
2023/11/22 04:27:14;;;;;;;;;23.50;22.00;;;;;23.39;37.42;100644.52;116654;1184;72231;-66
2023/11/22 04:29:42;;;;;;;;;25.50;22.50;;;;;23.40;37.39;100645.70;116628;1180;90855;-55
2023/11/22 04:32:10;;;;;;;;;20.50;20.00;;;;;23.39;37.38;100646.61;116664;1180;90523;-62
2023/11/22 04:34:38;;;;;;;;;20.00;19.00;;;;;23.40;37.37;100646.11;116680;1180;91110;-60
2023/11/22 04:37:06;;;;;;;;;23.00;20.50;;;;;23.40;37.36;100654.94;116597;1192;73536;-66
2023/11/22 04:39:35;;;;;;;;;21.00;20.00;;;;;23.38;37.52;100658.80;116625;1180;90689;-57
2023/11/22 04:42:03;;;;;;;;;23.50;20.50;;;;;23.37;37.86;100660.89;116614;1192;90542;-64
2023/11/22 04:44:34;;;;;;;;;21.00;21.00;;;;;23.36;37.73;100666.44;116598;1181;90886;-65
2023/11/22 04:47:04;;;;;;;;;20.50;20.50;;;;;23.35;37.68;100672.41;116614;1180;73347;-57
2023/11/22 04:49:32;;;;;;;;;20.00;20.00;;;;;23.34;37.56;100672.77;116592;1192;89861;-61
2023/11/22 04:52:01;;;;;;;;;25.50;23.00;;;;;23.33;37.74;100673.52;116580;1192;90848;-59
2023/11/22 04:54:29;;;;;;;;;21.00;20.00;;;;;23.31;37.87;100671.20;116637;1192;92663;-64
2023/11/22 04:56:57;;;;;;;;;22.50;21.50;;;;;23.31;37.79;100672.30;116654;1180;73334;-60
2023/11/22 04:59:26;;;;;;;;;19.00;18.00;;;;;23.31;37.82;100673.98;116619;1179;90174;-56
2023/11/22 05:01:54;;;;;;;;;28.50;25.50;;;;;23.30;37.61;100677.21;116567;1179;89789;-66
2023/11/22 05:04:26;;;;;;;;;25.00;23.50;;;;;23.27;37.33;100679.98;116584;1191;91208;-65
2023/11/22 05:06:54;;;;;;;;;22.00;22.00;;;;;23.26;37.42;100683.27;116636;1180;74017;-63
2023/11/22 05:09:22;;;;;;;;;23.00;23.00;;;;;23.27;37.34;100694.96;116591;1183;91265;-60
2023/11/22 05:11:52;;;;;;;;;26.00;23.00;;;;;23.27;37.32;100695.96;116595;1179;91114;-63
2023/11/22 05:14:20;;;;;;;;;25.00;25.00;;;;;23.29;37.31;100702.04;116645;1192;91254;-58
2023/11/22 05:16:48;;;;;;;;;22.00;21.00;;;;;23.31;37.37;100704.91;116640;1180;74024;-59
2023/11/22 05:19:16;;;;;;;;;23.00;22.00;;;;;23.32;37.39;100706.82;116622;1180;90903;-58
2023/11/22 05:21:43;;;;;;;;;21.00;19.00;;;;;23.34;37.30;100709.75;116643;1179;91445;-61
2023/11/22 05:24:11;;;;;;;;;19.50;19.00;;;;;23.35;37.23;100707.52;116581;1179;91536;-57
2023/11/22 05:26:39;;;;;;;;;22.50;21.50;;;;;23.35;37.37;100713.39;116632;1180;73397;-63
2023/11/22 05:29:07;;;;;;;;;19.00;19.00;;;;;23.35;37.32;100716.56;116599;1192;90457;-57
2023/11/22 05:31:37;;;;;;;;;20.00;19.50;;;;;23.36;37.12;100719.42;116602;1179;91427;-57
2023/11/22 05:34:05;;;;;;;;;20.50;20.00;;;;;23.36;37.22;100721.68;116636;1180;91556;-63
2023/11/22 05:36:33;;;;;;;;;19.00;18.50;;;;;23.36;37.31;100726.65;116591;1184;74126;-61
2023/11/22 05:39:05;;;;;;;;;20.00;20.00;;;;;23.36;37.57;100730.17;116620;1180;90226;-59
2023/11/22 05:41:33;;;;;;;;;18.50;18.00;;;;;23.36;37.46;100737.10;116588;1192;90087;-57
2023/11/22 05:44:02;;;;;;;;;21.50;20.00;;;;;23.36;37.59;100739.37;116582;1179;90864;-55
2023/11/22 05:46:30;;;;;;;;;21.50;19.50;;;;;23.35;37.66;100744.95;116623;1180;72007;-53
2023/11/22 05:49:00;;;;;;;;;18.00;18.00;;;;;23.35;37.67;100751.20;116602;1179;90712;-63
2023/11/22 05:51:28;;;;;;;;;21.00;18.00;;;;;23.34;37.88;100757.36;116591;1191;90768;-57
2023/11/22 05:53:56;;;;;;;;;18.50;18.50;;;;;23.33;37.82;100763.54;116601;1179;92674;-54
2023/11/22 05:56:24;;;;;;;;;24.50;22.00;;;;;23.32;37.80;100769.96;116632;1191;73254;-55
2023/11/22 05:58:52;;;;;;;;;22.00;20.00;;;;;23.31;37.81;100777.33;116635;1180;91148;-51
2023/11/22 06:01:20;;;;;;;;;19.00;18.00;;;;;23.29;37.75;100784.81;116635;1180;90323;-58
2023/11/22 06:03:48;;;;;;;;;23.50;23.50;;;;;23.28;37.69;100792.14;116599;1180;91203;-53
2023/11/22 06:06:17;;;;;;;;;18.00;18.00;;;;;23.26;37.81;100797.08;116621;1180;73360;-56
2023/11/22 06:08:45;;;;;;;;;19.50;19.50;;;;;23.25;37.94;100800.69;116627;1191;90526;-55
2023/11/22 06:11:14;;;;;;;;;22.00;20.00;;;;;23.26;37.87;100805.46;116481;1179;91309;-58
2023/11/22 06:13:42;;;;;;;;;20.50;18.00;;;;;23.25;37.99;100809.25;116522;1191;92094;-54
2023/11/22 06:16:10;;;;;;;;;26.00;26.00;;;;;23.24;37.94;100811.34;116658;1180;72989;-58
2023/11/22 06:18:40;;;;;;;;;25.50;25.50;;;;;23.21;38.10;100812.01;116583;1180;90337;-57
2023/11/22 06:21:08;;;;;;;;;22.00;19.50;;;;;23.27;38.31;100815.90;116512;1180;90016;-57
2023/11/22 06:23:36;;;;;;;;;22.50;21.00;;;;;23.30;38.28;100820.20;116500;1180;92746;-58
2023/11/22 06:26:06;;;;;;;;;19.00;18.00;;;;;23.31;38.39;100823.05;116489;1179;72647;-59
2023/11/22 06:28:35;;;;;;;;;21.00;19.50;;;;;23.32;38.21;100828.80;116484;1179;89923;-58
2023/11/22 06:31:03;;;;;;;;;29.00;29.00;;;;;23.32;38.55;100833.66;116488;1180;92423;-58
2023/11/22 06:33:31;;;;;;;;;28.00;27.00;;;;;23.32;38.43;100840.80;116525;1180;91378;-55
2023/11/22 06:35:59;;;;;;;;;74.67;56.00;;;;;23.33;38.76;100845.09;116635;1191;73578;-57
2023/11/22 06:38:28;;;;;;;;;75.33;58.00;;;;;23.38;39.20;100851.26;116651;1180;90756;-58
2023/11/22 06:40:56;;;;;;;;;72.00;56.00;;;;;23.40;38.73;100858.54;116503;1192;90778;-57
2023/11/22 06:43:24;;;;;;;;;68.00;55.00;;;;;23.37;37.84;100852.39;116508;1181;92328;-57
2023/11/22 06:45:52;;;;;;;;;66.67;52.00;;;;;23.36;37.78;100853.62;116496;1180;73490;-58
2023/11/22 06:48:20;;;;;;;;;58.50;44.00;;;;;23.31;37.01;100856.13;116459;1179;89014;-58
2023/11/22 06:50:51;;;;;;;;;56.67;45.33;;;;;23.27;36.79;100860.99;116617;1180;91229;-59
2023/11/22 06:53:20;;;;;;;;;50.00;39.00;;;;;23.24;36.33;100860.16;116517;1179;91560;-58
2023/11/22 06:55:48;;;;;;;;;48.00;37.50;;;;;23.18;36.29;100860.30;116456;1179;72759;-57
2023/11/22 06:58:17;;;;;;;;;47.50;40.00;;;;;23.12;35.95;100855.95;116549;1181;89495;-57
2023/11/22 07:00:46;;;;;;;;;41.00;34.00;;;;;23.09;36.08;100861.08;116572;1180;89626;-57
2023/11/22 07:03:15;;;;;;;;;42.50;36.50;;;;;23.06;36.01;100867.10;116641;1179;92038;-60
2023/11/22 07:05:44;;;;;;;;;47.00;38.00;;;;;23.03;35.99;100864.77;116549;1181;72393;-55
2023/11/22 07:08:12;;;;;;;;;35.00;33.00;;;;;23.01;36.06;100868.23;116655;1185;90084;-56
2023/11/22 07:10:40;;;;;;;;;40.00;34.00;;;;;22.96;36.15;100870.54;116588;1184;89975;-57
2023/11/22 07:13:08;;;;;;;;;39.50;35.00;;;;;22.93;35.89;100876.25;116561;1180;91916;-57
2023/11/22 07:15:36;;;;;;;;;43.50;36.50;;;;;22.88;35.89;100876.01;116520;1192;73415;-56
2023/11/22 07:18:05;;;;;;;;;40.00;33.50;;;;;22.84;35.89;100876.64;116600;1192;90734;-56
2023/11/22 07:20:33;;;;;;;;;37.00;33.00;;;;;22.78;36.06;100878.57;116544;1192;89027;-57
2023/11/22 07:23:02;;;;;;;;;32.50;32.50;;;;;22.74;36.08;100877.24;116590;1179;91637;-57
2023/11/22 07:25:31;;;;;;;;;39.00;32.50;;;;;22.70;35.79;100878.40;116643;1180;73207;-56
2023/11/22 07:28:00;;;;;;;;;33.00;31.00;;;;;22.69;35.98;100879.46;116643;1180;90805;-55
2023/11/22 07:30:30;;;;;;;;;33.50;31.50;;;;;22.70;35.99;100879.33;116645;1180;89281;-55
2023/11/22 07:32:59;;;;;;;;;27.00;26.00;;;;;22.66;35.69;100878.98;116606;1180;92553;-56
2023/11/22 07:35:28;;;;;;;;;30.00;29.00;;;;;22.61;35.62;100881.64;116627;1179;73726;-57
2023/11/22 07:37:57;;;;;;;;;33.00;31.00;;;;;22.58;35.89;100886.56;116629;1180;89726;-57
2023/11/22 07:40:25;;;;;;;;;25.00;25.00;;;;;22.54;35.79;100891.02;116560;1181;91090;-57
2023/11/22 07:42:54;;;;;;;;;36.00;33.00;;;;;22.48;35.72;100893.61;116538;1178;92303;-57
2023/11/22 07:45:22;;;;;;;;;29.50;27.50;;;;;22.43;35.88;100899.58;116599;1180;73041;-57
2023/11/22 07:47:52;;;;;;;;;31.50;31.00;;;;;22.39;35.99;100902.77;116589;1191;88921;-59
2023/11/22 07:50:24;;;;;;;;;29.50;28.50;;;;;22.35;35.99;100904.46;116668;1191;89861;-58
2023/11/22 07:52:52;;;;;;;;;32.00;29.00;;;;;22.32;36.03;100909.05;116609;1180;91407;-56
2023/11/22 07:55:20;;;;;;;;;25.50;24.50;;;;;22.28;36.08;100911.12;116580;1191;74641;-57
2023/11/22 07:57:49;;;;;;;;;26.50;24.00;;;;;22.23;36.24;100918.84;116632;1180;90505;-56
2023/11/22 08:00:19;;;;;;;;;30.00;30.00;;;;;22.20;36.20;100923.87;116633;1192;91234;-57
2023/11/22 08:02:47;;;;;;;;;30.00;27.50;;;;;22.14;36.08;100927.77;116594;1179;92497;-58
2023/11/22 08:05:16;;;;;;;;;28.00;28.00;;;;;22.11;36.14;100931.67;116604;1181;72275;-57
2023/11/22 08:07:45;;;;;;;;;31.50;30.50;;;;;22.07;36.34;100930.04;116644;1180;91549;-57
2023/11/22 08:10:19;;;;;;;;;29.00;28.00;;;;;22.06;36.44;100932.04;116611;1179;89563;-58
2023/11/22 08:12:49;;;;;;;;;29.00;28.50;;;;;22.05;36.49;100931.33;116612;1191;91764;-56
2023/11/22 08:15:19;;;;;;;;;29.00;29.00;;;;;22.03;36.46;100934.60;116619;1179;71750;-57
2023/11/22 08:17:47;;;;;;;;;27.50;26.00;;;;;22.01;36.41;100934.77;116609;1180;89362;-57
2023/11/22 08:20:17;;;;;;;;;28.00;24.00;;;;;21.98;36.52;100932.81;116582;1180;89237;-58
2023/11/22 08:22:49;;;;;;;;;31.50;25.50;;;;;21.95;36.59;100945.04;116599;1179;91080;-58
2023/11/22 08:25:18;;;;;;;;;30.00;30.00;;;;;21.94;36.68;100948.43;116679;1178;72849;-56
2023/11/22 08:27:46;;;;;;;;;32.00;28.00;;;;;21.92;36.48;100950.33;116604;1181;90564;-58
2023/11/22 08:30:15;;;;;;;;;30.00;28.50;;;;;21.87;36.59;100951.46;116621;1179;90693;-55
2023/11/22 08:32:48;;;;;;;;;28.00;25.00;;;;;21.86;36.76;100946.96;116662;1179;91198;-55
2023/11/22 08:35:16;;;;;;;;;24.50;24.50;;;;;21.83;36.64;100948.48;116657;1180;73865;-57
2023/11/22 08:37:44;;;;;;;;;25.00;24.00;;;;;21.84;36.62;100952.88;116657;1180;90550;-56
2023/11/22 08:40:16;;;;;;;;;26.00;24.00;;;;;21.82;36.88;100950.82;116588;1187;89901;-56
2023/11/22 08:42:44;;;;;;;;;22.00;20.00;;;;;21.79;36.90;100954.31;116621;1180;91516;-57
2023/11/22 08:45:12;;;;;;;;;23.00;19.00;;;;;21.76;36.85;100956.44;116607;1184;74055;-57
2023/11/22 08:47:43;;;;;;;;;24.00;24.00;;;;;21.75;36.82;100954.09;116656;1180;89966;-57
2023/11/22 08:50:11;;;;;;;;;25.00;25.00;;;;;21.76;37.04;100957.61;116608;1191;90693;-56
2023/11/22 08:52:41;;;;;;;;;30.00;27.00;;;;;21.76;36.93;100959.27;116644;1179;92581;-56
2023/11/22 08:55:10;;;;;;;;;27.50;27.00;;;;;21.75;36.86;100963.77;116641;1186;72853;-56
2023/11/22 08:57:38;;;;;;;;;25.00;25.00;;;;;21.72;36.89;100961.58;116565;1180;91618;-56
2023/11/22 09:00:08;;;;;;;;;29.00;28.00;;;;;21.69;36.82;100962.44;116648;1180;89728;-57
2023/11/22 09:02:38;;;;;;;;;25.50;22.50;;;;;21.66;37.11;100967.27;116600;1184;91048;-56
2023/11/22 09:05:12;;;;;;;;;30.50;29.00;;;;;21.65;36.98;100964.68;116622;1180;74119;-57
2023/11/22 09:07:40;;;;;;;;;29.00;28.00;;;;;21.65;37.14;100965.44;116622;1180;90591;-57
2023/11/22 09:10:09;;;;;;;;;30.00;27.00;;;;;21.64;37.04;100962.67;116620;1179;89103;-56
2023/11/22 09:12:40;;;;;;;;;27.00;24.00;;;;;21.62;37.03;100957.48;116636;1180;91841;-57
2023/11/22 09:15:15;;;;;;;;;24.00;24.00;;;;;21.62;37.13;100960.75;116643;1179;73924;-57
2023/11/22 09:17:43;;;;;;;;;33.00;29.00;;;;;21.62;37.22;100967.53;116622;1179;91463;-58
2023/11/22 09:20:13;;;;;;;;;32.00;26.50;;;;;21.61;37.24;100965.10;116688;1180;90850;-57
2023/11/22 09:22:52;;;;;;;;;32.00;28.50;;;;;21.60;37.40;100969.20;116634;1180;92340;-56
2023/11/22 09:25:24;;;;;;;;;27.00;26.50;;;;;21.60;37.32;100968.66;116660;1181;72906;-57
2023/11/22 09:27:58;;;;;;;;;26.00;26.00;;;;;21.60;37.30;100968.11;116632;1191;89301;-57
2023/11/22 09:30:32;;;;;;;;;24.50;20.00;;;;;21.63;37.26;100967.52;116608;1179;91371;-57
2023/11/22 09:33:07;;;;;;;;;27.00;25.00;;;;;21.68;37.52;100968.24;116625;1179;91792;-58
2023/11/22 09:35:36;;;;;;;;;25.50;25.50;;;;;21.73;37.56;100974.48;116598;1181;73458;-57
2023/11/22 09:38:11;;;;;;;;;28.50;25.50;;;;;21.78;37.22;100973.65;116619;1191;89656;-57
2023/11/22 09:40:46;;;;;;;;;27.00;24.50;;;;;21.82;37.05;100975.29;116605;1179;89809;-57
2023/11/22 09:43:17;;;;;;;;;27.50;26.50;;;;;21.87;37.18;100980.57;116651;1191;90131;-55
2023/11/22 09:45:48;;;;;;;;;24.50;22.00;;;;;21.92;36.99;100981.23;116622;1179;74281;-58
2023/11/22 09:48:27;;;;;;;;;27.00;26.00;;;;;21.97;36.93;100985.23;116635;1179;90117;-57
2023/11/22 09:51:14;;;;;;;;;27.00;24.00;;;;;22.00;36.74;100989.39;116639;1180;90929;-57
2023/11/22 09:53:59;;;;;;;;;34.00;30.00;;;;;22.01;36.67;100990.29;116617;1183;91192;-58
2023/11/22 09:56:28;;;;;;;;;29.50;28.50;;;;;22.00;37.10;100996.86;116617;1179;73503;-59
2023/11/22 09:59:00;;;;;;;;;24.00;22.00;;;;;22.01;37.48;101002.52;116495;1180;90116;-60
2023/11/22 10:01:30;;;;;;;;;22.00;22.00;;;;;22.05;37.76;101005.95;117234;1181;90925;-57
2023/11/22 10:03:59;;;;;;;;;18.00;17.50;;;;;22.22;37.69;101006.52;116851;1179;91803;-58
2023/11/22 10:06:33;;;;;;;;;22.50;22.50;;;;;22.39;37.36;101010.85;117289;1192;73650;-59
2023/11/22 10:09:08;;;;;;;;;28.00;24.00;;;;;22.54;37.15;101012.58;117145;1180;90030;-59
2023/11/22 10:11:43;;;;;;;;;23.00;23.00;;;;;22.63;37.13;101016.71;116618;1180;90282;-58
2023/11/22 10:14:23;;;;;;;;;27.00;22.50;;;;;22.60;37.13;101019.56;116639;1180;91451;-57
2023/11/22 10:16:58;;;;;;;;;25.50;25.00;;;;;22.55;37.17;101020.59;116632;1179;72992;-59
2023/11/22 10:19:28;;;;;;;;;24.00;22.00;;;;;22.51;37.11;101021.71;116594;1179;90333;-59
2023/11/22 10:22:07;;;;;;;;;21.00;20.00;;;;;22.47;37.32;101026.58;116594;1179;91686;-58
2023/11/22 10:24:35;;;;;;;;;24.50;23.50;;;;;22.42;37.73;101034.41;116768;1181;91587;-65
2023/11/22 10:27:05;;;;;;;;;28.00;26.50;;;;;22.43;38.14;101030.73;116573;1182;73608;-60
2023/11/22 10:29:36;;;;;;;;;24.00;23.00;;;;;22.49;38.34;101032.98;116692;1180;90658;-59
2023/11/22 10:32:05;;;;;;;;;30.50;29.00;;;;;22.45;37.92;101038.55;116621;1179;90761;-60
2023/11/22 10:34:33;;;;;;;;;28.00;28.00;;;;;22.34;37.76;101039.38;116668;1179;91264;-60
2023/11/22 10:37:03;;;;;;;;;33.00;28.00;;;;;22.26;37.72;101042.14;116611;1191;72523;-64
2023/11/22 10:39:32;;;;;;;;;37.00;32.00;;;;;22.20;38.03;101044.40;116535;1180;90461;-59
2023/11/22 10:42:05;;;;;;;;;32.00;31.00;;;;;22.15;38.27;101040.63;116731;1179;90566;-59
2023/11/22 10:44:34;;;;;;;;;30.00;26.50;;;;;22.18;37.61;101040.50;116579;1192;91307;-62
2023/11/22 10:47:02;;;;;;;;;28.00;27.00;;;;;22.21;37.21;101041.52;116599;1180;73597;-60
2023/11/22 10:49:31;;;;;;;;;31.00;30.00;;;;;22.23;37.14;101042.56;116621;1180;90645;-61
2023/11/22 10:52:00;;;;;;;;;28.50;27.00;;;;;22.25;36.94;101044.79;116532;1180;89396;-60
2023/11/22 10:54:29;;;;;;;;;25.00;24.50;;;;;22.29;36.86;101049.17;116619;1180;91715;-60
2023/11/22 10:57:00;;;;;;;;;34.00;31.00;;;;;22.34;36.70;101049.94;116539;1180;73642;-60
2023/11/22 10:59:28;;;;;;;;;24.00;24.00;;;;;22.38;36.74;101052.61;116582;1179;91184;-57
2023/11/22 11:01:58;;;;;;;;;30.00;26.00;;;;;22.40;36.43;101054.91;116491;1180;90582;-61
2023/11/22 11:04:37;;;;;;;;;22.00;22.00;;;;;22.42;36.26;101063.55;116612;1179;91534;-61
2023/11/22 11:07:08;;;;;;;;;26.00;23.50;;;;;22.46;36.11;101060.45;116362;1192;72582;-60
2023/11/22 11:09:36;;;;;;;;;26.50;23.50;;;;;22.50;35.98;101063.16;116438;1180;88726;-59
2023/11/22 11:12:06;;;;;;;;;26.50;25.00;;;;;22.50;35.84;101064.17;116398;1180;88724;-59